createdAt,value
2019-03-27T00:01:06.562Z,101717.84
2019-03-27T00:02:11.971Z,101721.48
2019-03-27T00:03:16.502Z,101718.84
2019-03-27T00:04:20.957Z,101713.02
2019-03-27T00:05:25.746Z,101712.63
2019-03-27T00:06:30.196Z,101708.59
2019-03-27T00:07:34.655Z,101704.62
2019-03-27T00:08:39.188Z,101700.16
2019-03-27T00:09:44.133Z,101695.23
2019-03-27T00:10:49.080Z,101705.25
2019-03-27T00:11:53.448Z,101704.36
2019-03-27T00:12:58.151Z,101706.21
2019-03-27T00:14:02.929Z,101701.78
2019-03-27T00:15:12.976Z,101698.70
2019-03-27T00:16:14.727Z,101703.27
2019-03-27T00:17:19.180Z,101704.19
2019-03-27T00:18:23.890Z,101699.33
2019-03-27T00:19:28.260Z,101698.47
2019-03-27T00:20:33.283Z,101696.16
2019-03-27T00:21:37.654Z,101694.87
2019-03-27T00:22:42.108Z,101694.93
2019-03-27T00:23:46.474Z,101697.25
2019-03-27T00:24:50.921Z,101696.81
2019-03-27T00:25:55.391Z,101700.88
2019-03-27T00:26:59.772Z,101702.70
2019-03-27T00:28:04.229Z,101703.63
2019-03-27T00:29:08.751Z,101699.09
2019-03-27T00:30:13.492Z,101699.99
2019-03-27T00:31:18.030Z,101705.78
2019-03-27T00:32:22.650Z,101697.64
2019-03-27T00:33:27.105Z,101697.15
2019-03-27T00:34:31.497Z,101703.92
2019-03-27T00:35:36.008Z,101693.51
2019-03-27T00:36:40.552Z,101696.16
2019-03-27T00:37:45.179Z,101690.27
2019-03-27T00:38:49.799Z,101690.73
2019-03-27T00:39:54.814Z,101696.98
2019-03-27T00:40:59.451Z,101692.45
2019-03-27T00:42:03.898Z,101690.63
2019-03-27T00:43:08.448Z,101691.56
2019-03-27T00:44:12.811Z,101689.28
2019-03-27T00:45:26.336Z,101685.20
2019-03-27T00:46:24.148Z,101689.38
2019-03-27T00:47:28.519Z,101684.42
2019-03-27T00:48:33.134Z,101682.63
2019-03-27T00:49:37.756Z,101690.80
2019-03-27T00:50:42.212Z,101689.44
2019-03-27T00:51:46.929Z,101693.51
2019-03-27T00:52:51.294Z,101672.97
2019-03-27T00:53:55.671Z,101686.30
2019-03-27T00:55:00.369Z,101683.12
2019-03-27T00:56:04.833Z,101684.05
2019-03-27T00:57:09.626Z,101683.12
2019-03-27T00:58:14.250Z,101687.66
2019-03-27T00:59:19.398Z,101691.66
2019-03-27T01:00:30.935Z,101689.44
2019-03-27T01:01:35.715Z,101689.41
2019-03-27T01:02:40.243Z,101696.19
2019-03-27T01:03:45.028Z,101693.51
2019-03-27T01:04:49.475Z,101697.15
2019-03-27T01:05:54.086Z,101697.15
2019-03-27T01:06:58.628Z,101692.65
2019-03-27T01:08:03.078Z,101700.78
2019-03-27T01:09:07.613Z,101698.11
2019-03-27T01:10:12.146Z,101697.25
2019-03-27T01:11:16.683Z,101696.38
2019-03-27T01:12:21.150Z,101698.66
2019-03-27T01:13:25.772Z,101696.45
2019-03-27T01:14:30.303Z,101696.02
2019-03-27T01:15:40.190Z,101692.95
2019-03-27T01:16:41.296Z,101690.73
2019-03-27T01:17:46.004Z,101693.47
2019-03-27T01:18:50.624Z,101695.75
2019-03-27T01:19:55.076Z,101695.32
2019-03-27T01:21:00.023Z,101697.20
2019-03-27T01:22:04.562Z,101699.48
2019-03-27T01:23:08.937Z,101689.12
2019-03-27T01:24:13.470Z,101694.09
2019-03-27T01:25:17.929Z,101695.91
2019-03-27T01:26:22.302Z,101695.48
2019-03-27T01:27:26.688Z,101692.77
2019-03-27T01:28:31.304Z,101694.61
2019-03-27T01:29:36.177Z,101694.61
2019-03-27T01:30:41.195Z,101692.44
2019-03-27T01:31:45.905Z,101692.89
2019-03-27T01:32:50.296Z,101690.22
2019-03-27T01:33:54.828Z,101693.41
2019-03-27T01:34:59.202Z,101692.13
2019-03-27T01:36:03.744Z,101695.36
2019-03-27T01:37:08.138Z,101694.92
2019-03-27T01:38:12.859Z,101703.12
2019-03-27T01:39:17.232Z,101696.00
2019-03-27T01:40:21.697Z,101698.31
2019-03-27T01:41:26.139Z,101697.91
2019-03-27T01:42:30.606Z,101698.43
2019-03-27T01:43:35.029Z,101702.55
2019-03-27T01:44:39.433Z,101702.61
2019-03-27T01:45:52.856Z,101704.95
2019-03-27T01:46:50.541Z,101689.42
2019-03-27T01:47:55.234Z,101703.66
2019-03-27T01:49:00.003Z,101704.17
2019-03-27T01:50:04.883Z,101706.94
2019-03-27T01:51:09.345Z,101700.63
2019-03-27T01:52:13.797Z,101701.13
2019-03-27T01:53:18.506Z,101700.23
2019-03-27T01:54:22.878Z,101700.25
2019-03-27T01:55:27.824Z,101696.67
2019-03-27T01:56:32.202Z,101696.67
2019-03-27T01:57:36.667Z,101698.49
2019-03-27T01:58:41.196Z,101700.34
2019-03-27T01:59:45.572Z,101701.27
2019-03-27T02:00:50.105Z,101700.80
2019-03-27T02:01:54.809Z,101695.41
2019-03-27T02:02:59.528Z,101699.05
2019-03-27T02:04:04.791Z,101698.61
2019-03-27T02:05:09.434Z,101698.17
2019-03-27T02:06:13.810Z,101700.02
2019-03-27T02:07:18.254Z,101702.81
2019-03-27T02:08:22.891Z,101703.77
2019-03-27T02:09:27.587Z,101703.35
2019-03-27T02:10:32.115Z,101698.05
2019-03-27T02:11:36.828Z,101705.33
2019-03-27T02:12:41.294Z,101702.71
2019-03-27T02:13:45.824Z,101704.12
2019-03-27T02:14:50.274Z,101703.77
2019-03-27T02:16:06.160Z,101698.41
2019-03-27T02:17:01.216Z,101707.47
2019-03-27T02:18:05.774Z,101709.80
2019-03-27T02:19:10.295Z,101708.50
2019-03-27T02:20:14.751Z,101708.98
2019-03-27T02:21:19.526Z,101718.53
2019-03-27T02:22:24.467Z,101713.61
2019-03-27T02:23:29.017Z,101707.78
2019-03-27T02:24:33.394Z,101715.47
2019-03-27T02:25:37.841Z,101716.00
2019-03-27T02:26:42.538Z,101717.41
2019-03-27T02:27:47.328Z,101715.18
2019-03-27T02:28:51.780Z,101717.05
2019-03-27T02:29:56.231Z,101714.83
2019-03-27T02:31:00.812Z,101718.45
2019-03-27T02:32:05.542Z,101716.19
2019-03-27T02:33:10.008Z,101719.81
2019-03-27T02:34:14.954Z,101722.95
2019-03-27T02:35:19.395Z,101715.27
2019-03-27T02:36:24.412Z,101720.70
2019-03-27T02:37:29.183Z,101723.84
2019-03-27T02:38:33.832Z,101724.25
2019-03-27T02:39:38.509Z,101727.80
2019-03-27T02:40:43.216Z,101720.55
2019-03-27T02:41:47.609Z,101724.50
2019-03-27T02:42:52.044Z,101724.48
2019-03-27T02:43:56.523Z,101724.45
2019-03-27T02:45:00.888Z,101731.20
2019-03-27T02:46:05.446Z,101726.66
2019-03-27T02:47:09.902Z,101729.30
2019-03-27T02:48:14.373Z,101728.38
2019-03-27T02:49:18.988Z,101720.24
2019-03-27T02:50:24.187Z,101732.83
2019-03-27T02:51:28.811Z,101734.16
2019-03-27T02:52:33.185Z,101731.38
2019-03-27T02:53:37.730Z,101729.97
2019-03-27T02:54:42.176Z,101734.44
2019-03-27T02:55:46.873Z,101730.78
2019-03-27T02:56:51.256Z,101734.81
2019-03-27T02:57:56.247Z,101736.17
2019-03-27T02:59:00.704Z,101735.73
2019-03-27T03:00:06.603Z,101739.33
2019-03-27T03:01:11.124Z,101741.15
2019-03-27T03:02:16.049Z,101740.75
2019-03-27T03:03:20.785Z,101741.61
2019-03-27T03:04:25.401Z,101747.52
2019-03-27T03:05:30.005Z,101747.45
2019-03-27T03:06:34.538Z,101743.39
2019-03-27T03:07:39.243Z,101744.75
2019-03-27T03:08:43.705Z,101743.85
2019-03-27T03:09:48.408Z,101741.15
2019-03-27T03:10:52.937Z,101736.69
2019-03-27T03:11:57.564Z,101740.75
2019-03-27T03:13:02.093Z,101743.02
2019-03-27T03:14:06.632Z,101736.70
2019-03-27T03:15:11.264Z,101736.73
2019-03-27T03:16:16.035Z,101738.09
2019-03-27T03:17:20.479Z,101735.43
2019-03-27T03:18:25.027Z,101738.16
2019-03-27T03:19:29.736Z,101734.16
2019-03-27T03:20:34.183Z,101737.33
2019-03-27T03:21:38.569Z,101736.00
2019-03-27T03:22:43.008Z,101740.49
2019-03-27T03:23:47.730Z,101737.35
2019-03-27T03:24:52.175Z,101739.59
2019-03-27T03:25:56.700Z,101738.67
2019-03-27T03:27:01.226Z,101734.64
2019-03-27T03:28:05.756Z,101740.95
2019-03-27T03:29:10.213Z,101748.17
2019-03-27T03:30:15.668Z,101745.03
2019-03-27T03:31:20.111Z,101741.44
2019-03-27T03:32:24.760Z,101748.17
2019-03-27T03:33:29.595Z,101749.07
2019-03-27T03:34:34.653Z,101745.47
2019-03-27T03:35:39.569Z,101749.50
2019-03-27T03:36:44.350Z,101747.72
2019-03-27T03:37:48.839Z,101742.28
2019-03-27T03:38:53.194Z,101742.72
2019-03-27T03:39:57.570Z,101743.11
2019-03-27T03:41:02.267Z,101742.20
2019-03-27T03:42:06.967Z,101739.92
2019-03-27T03:43:11.740Z,101744.40
2019-03-27T03:44:16.532Z,101742.58
2019-03-27T03:45:21.051Z,101741.66
2019-03-27T03:46:25.739Z,101741.66
2019-03-27T03:47:30.133Z,101740.75
2019-03-27T03:48:35.061Z,101743.85
2019-03-27T03:49:39.764Z,101738.44
2019-03-27T03:50:45.449Z,101738.04
2019-03-27T03:51:49.965Z,101741.15
2019-03-27T03:52:54.725Z,101738.50
2019-03-27T03:54:00.070Z,101739.39
2019-03-27T03:55:04.947Z,101744.38
2019-03-27T03:56:10.896Z,101750.22
2019-03-27T03:57:15.945Z,101747.54
2019-03-27T03:58:21.571Z,101747.54
2019-03-27T03:59:27.652Z,101751.14
2019-03-27T04:00:33.643Z,101749.78
2019-03-27T04:01:39.902Z,101748.00
2019-03-27T04:02:45.430Z,101743.94
2019-03-27T04:03:52.001Z,101746.20
2019-03-27T04:04:57.811Z,101747.61
2019-03-27T04:06:02.674Z,101745.42
2019-03-27T04:07:07.201Z,101746.80
2019-03-27T04:08:11.973Z,101743.73
2019-03-27T04:09:16.760Z,101747.87
2019-03-27T04:10:21.212Z,101757.41
2019-03-27T04:11:25.580Z,101750.74
2019-03-27T04:12:30.276Z,101757.17
2019-03-27T04:13:34.898Z,101753.68
2019-03-27T04:14:39.280Z,101750.17
2019-03-27T04:15:43.732Z,101761.08
2019-03-27T04:16:48.186Z,101754.88
2019-03-27T04:17:52.817Z,101756.27
2019-03-27T04:18:57.442Z,101758.09
2019-03-27T04:20:02.057Z,101763.07
2019-03-27T04:21:06.424Z,101758.13
2019-03-27T04:22:11.121Z,101761.28
2019-03-27T04:23:15.979Z,101759.47
2019-03-27T04:24:20.854Z,101761.72
2019-03-27T04:25:25.326Z,101759.00
2019-03-27T04:26:33.406Z,101754.94
2019-03-27T04:27:36.329Z,101755.37
2019-03-27T04:28:40.960Z,101753.59
2019-03-27T04:29:45.580Z,101757.19
2019-03-27T04:30:50.344Z,101762.14
2019-03-27T04:31:54.975Z,101758.97
2019-03-27T04:32:59.412Z,101761.68
2019-03-27T04:34:03.800Z,101767.07
2019-03-27T04:35:08.325Z,101760.77
2019-03-27T04:36:13.012Z,101763.92
2019-03-27T04:37:17.620Z,101766.20
2019-03-27T04:38:22.802Z,101764.41
2019-03-27T04:39:27.172Z,101767.12
2019-03-27T04:40:31.626Z,101768.09
2019-03-27T04:41:36.008Z,101769.02
2019-03-27T04:42:40.452Z,101764.56
2019-03-27T04:43:44.825Z,101772.23
2019-03-27T04:44:49.511Z,101768.25
2019-03-27T04:45:54.145Z,101761.09
2019-03-27T04:46:58.830Z,101767.92
2019-03-27T04:48:03.210Z,101774.28
2019-03-27T04:49:07.930Z,101772.50
2019-03-27T04:50:12.565Z,101769.89
2019-03-27T04:51:17.194Z,101769.98
2019-03-27T04:52:21.569Z,101770.47
2019-03-27T04:53:26.015Z,101768.31
2019-03-27T04:54:30.464Z,101773.30
2019-03-27T04:55:35.183Z,101769.80
2019-03-27T04:56:39.799Z,101771.20
2019-03-27T04:57:44.247Z,101775.77
2019-03-27T04:58:48.693Z,101776.71
2019-03-27T04:59:53.385Z,101773.20
2019-03-27T05:00:58.077Z,101768.28
2019-03-27T05:02:02.605Z,101775.55
2019-03-27T05:03:07.223Z,101776.02
2019-03-27T05:04:12.000Z,101777.45
2019-03-27T05:05:16.462Z,101775.23
2019-03-27T05:06:21.095Z,101775.70
2019-03-27T05:07:25.597Z,101782.47
2019-03-27T05:08:30.043Z,101782.53
2019-03-27T05:09:34.744Z,101779.41
2019-03-27T05:10:39.733Z,101772.71
2019-03-27T05:11:44.756Z,101779.48
2019-03-27T05:12:49.206Z,101775.46
2019-03-27T05:13:54.087Z,101783.19
2019-03-27T05:14:58.533Z,101785.00
2019-03-27T05:16:03.168Z,101785.92
2019-03-27T05:17:07.539Z,101784.61
2019-03-27T05:18:12.074Z,101785.98
2019-03-27T05:19:16.965Z,101795.89
2019-03-27T05:20:21.365Z,101789.59
2019-03-27T05:21:25.971Z,101796.80
2019-03-27T05:22:30.423Z,101799.95
2019-03-27T05:23:35.119Z,101803.10
2019-03-27T05:24:39.474Z,101799.06
2019-03-27T05:25:44.176Z,101807.16
2019-03-27T05:26:48.623Z,101808.55
2019-03-27T05:27:52.996Z,101804.06
2019-03-27T05:28:57.445Z,101802.27
2019-03-27T05:30:01.811Z,101805.88
2019-03-27T05:31:06.434Z,101804.97
2019-03-27T05:32:11.211Z,101810.83
2019-03-27T05:33:15.825Z,101810.83
2019-03-27T05:34:20.190Z,101815.78
2019-03-27T05:35:24.566Z,101814.43
2019-03-27T05:36:29.282Z,101818.05
2019-03-27T05:37:34.217Z,101824.34
2019-03-27T05:38:38.588Z,101815.39
2019-03-27T05:39:42.963Z,101820.34
2019-03-27T05:40:47.675Z,101819.91
2019-03-27T05:41:52.118Z,101808.22
2019-03-27T05:43:00.941Z,101810.92
2019-03-27T05:44:03.376Z,101819.91
2019-03-27T05:45:08.222Z,101820.37
2019-03-27T05:46:13.055Z,101823.96
2019-03-27T05:47:17.504Z,101818.56
2019-03-27T05:48:22.497Z,101816.32
2019-03-27T05:49:26.863Z,101819.46
2019-03-27T05:50:31.231Z,101823.51
2019-03-27T05:51:36.211Z,101827.11
2019-03-27T05:52:40.725Z,101823.95
2019-03-27T05:53:45.343Z,101819.00
2019-03-27T05:54:49.949Z,101827.09
2019-03-27T05:55:54.412Z,101832.00
2019-03-27T05:56:59.124Z,101827.05
2019-03-27T05:58:03.562Z,101824.78
2019-03-27T05:59:08.107Z,101822.52
2019-03-27T06:00:13.890Z,101824.77
2019-03-27T06:01:18.345Z,101824.77
2019-03-27T06:02:23.037Z,101820.28
2019-03-27T06:03:27.664Z,101821.62
2019-03-27T06:04:32.035Z,101823.87
2019-03-27T06:05:36.408Z,101827.02
2019-03-27T06:06:40.788Z,101822.97
2019-03-27T06:07:45.774Z,101807.78
2019-03-27T06:08:50.479Z,101829.70
2019-03-27T06:09:55.097Z,101826.05
2019-03-27T06:10:59.469Z,101834.58
2019-03-27T06:12:03.926Z,101833.67
2019-03-27T06:13:09.051Z,101834.11
2019-03-27T06:14:13.756Z,101829.56
2019-03-27T06:15:18.576Z,101839.00
2019-03-27T06:16:23.459Z,101838.53
2019-03-27T06:17:28.084Z,101842.58
2019-03-27T06:18:32.548Z,101838.07
2019-03-27T06:19:37.174Z,101838.51
2019-03-27T06:20:41.572Z,101834.42
2019-03-27T06:21:46.271Z,101836.66
2019-03-27T06:22:50.658Z,101840.62
2019-03-27T06:23:55.652Z,101841.47
2019-03-27T06:25:00.439Z,101842.27
2019-03-27T06:26:05.157Z,101839.42
2019-03-27T06:27:09.566Z,101839.30
2019-03-27T06:28:14.457Z,101836.48
2019-03-27T06:29:18.829Z,101839.52
2019-03-27T06:30:23.466Z,101837.59
2019-03-27T06:31:28.158Z,101832.53
2019-03-27T06:32:32.624Z,101836.97
2019-03-27T06:33:37.658Z,101831.48
2019-03-27T06:34:42.474Z,101828.23
2019-03-27T06:35:47.023Z,101833.14
2019-03-27T06:36:51.733Z,101837.56
2019-03-27T06:37:56.351Z,101832.12
2019-03-27T06:39:00.821Z,101832.94
2019-03-27T06:40:06.158Z,101830.19
2019-03-27T06:41:11.015Z,101825.59
2019-03-27T06:42:15.733Z,101831.84
2019-03-27T06:43:20.364Z,101827.26
2019-03-27T06:44:24.820Z,101823.59
2019-03-27T06:45:29.212Z,101816.74
2019-03-27T06:46:33.837Z,101824.83
2019-03-27T06:47:38.759Z,101822.51
2019-03-27T06:48:43.130Z,101823.36
2019-03-27T06:49:47.935Z,101824.70
2019-03-27T06:50:52.283Z,101826.92
2019-03-27T06:51:56.912Z,101830.47
2019-03-27T06:53:01.547Z,101826.84
2019-03-27T06:54:06.104Z,101828.66
2019-03-27T06:55:10.906Z,101826.87
2019-03-27T06:56:15.308Z,101823.32
2019-03-27T06:57:19.772Z,101826.50
2019-03-27T06:58:24.150Z,101832.38
2019-03-27T06:59:28.768Z,101820.22
2019-03-27T07:00:39.287Z,101826.98
2019-03-27T07:01:43.745Z,101825.20
2019-03-27T07:02:48.132Z,101831.06
2019-03-27T07:03:53.174Z,101835.17
2019-03-27T07:04:57.864Z,101828.89
2019-03-27T07:06:02.239Z,101834.32
2019-03-27T07:07:06.693Z,101840.61
2019-03-27T07:08:11.845Z,101836.13
2019-03-27T07:09:16.564Z,101837.92
2019-03-27T07:10:21.012Z,101846.05
2019-03-27T07:11:25.388Z,101843.34
2019-03-27T07:12:30.274Z,101848.29
2019-03-27T07:13:34.908Z,101845.12
2019-03-27T07:14:39.795Z,101848.30
2019-03-27T07:15:44.757Z,101854.59
2019-03-27T07:16:49.541Z,101852.80
2019-03-27T07:17:54.484Z,101861.36
2019-03-27T07:18:59.383Z,101864.55
2019-03-27T07:20:04.060Z,101854.67
2019-03-27T07:21:08.600Z,101862.30
2019-03-27T07:22:13.148Z,101865.89
2019-03-27T07:23:17.661Z,101865.88
2019-03-27T07:24:22.163Z,101868.13
2019-03-27T07:25:26.717Z,101874.43
2019-03-27T07:26:31.253Z,101874.88
2019-03-27T07:27:35.838Z,101872.61
2019-03-27T07:28:40.441Z,101882.02
2019-03-27T07:29:45.218Z,101877.50
2019-03-27T07:30:49.887Z,101877.94
2019-03-27T07:31:54.461Z,101883.78
2019-03-27T07:32:58.934Z,101882.85
2019-03-27T07:34:03.795Z,101871.61
2019-03-27T07:35:08.501Z,101877.92
2019-03-27T07:36:12.965Z,101873.84
2019-03-27T07:37:17.427Z,101872.94
2019-03-27T07:38:21.949Z,101879.25
2019-03-27T07:39:26.397Z,101875.65
2019-03-27T07:40:31.383Z,101880.98
2019-03-27T07:41:35.777Z,101872.87
2019-03-27T07:42:40.350Z,101868.31
2019-03-27T07:43:45.148Z,101870.08
2019-03-27T07:44:50.139Z,101868.27
2019-03-27T07:45:54.874Z,101873.61
2019-03-27T07:46:59.418Z,101883.50
2019-03-27T07:48:04.240Z,101875.34
2019-03-27T07:49:09.007Z,101874.83
2019-03-27T07:50:13.701Z,101877.93
2019-03-27T07:51:18.242Z,101875.20
2019-03-27T07:52:22.713Z,101875.13
2019-03-27T07:53:27.685Z,101867.86
2019-03-27T07:54:32.493Z,101870.02
2019-03-27T07:55:37.238Z,101865.94
2019-03-27T07:56:41.944Z,101864.11
2019-03-27T07:57:46.741Z,101867.17
2019-03-27T07:58:51.433Z,101866.25
2019-03-27T07:59:55.884Z,101864.86
2019-03-27T08:01:00.528Z,101863.96
2019-03-27T08:02:05.063Z,101856.27
2019-03-27T08:03:09.537Z,101863.94
2019-03-27T08:04:14.590Z,101864.75
2019-03-27T08:05:19.368Z,101874.20
2019-03-27T08:06:24.118Z,101875.08
2019-03-27T08:07:28.639Z,101871.89
2019-03-27T08:08:33.033Z,101873.16
2019-03-27T08:09:37.662Z,101868.59
2019-03-27T08:10:42.374Z,101874.42
2019-03-27T08:11:46.826Z,101877.53
2019-03-27T08:12:51.598Z,101872.98
2019-03-27T08:13:56.134Z,101873.42
2019-03-27T08:15:00.511Z,101866.54
2019-03-27T08:16:05.027Z,101866.08
2019-03-27T08:17:09.659Z,101865.59
2019-03-27T08:18:14.637Z,101871.45
2019-03-27T08:19:19.394Z,101866.90
2019-03-27T08:20:23.859Z,101876.76
2019-03-27T08:21:31.234Z,101876.70
2019-03-27T08:22:35.172Z,101875.77
2019-03-27T08:23:39.823Z,101877.49
2019-03-27T08:24:44.279Z,101877.44
2019-03-27T08:25:48.740Z,101873.30
2019-03-27T08:26:53.177Z,101873.70
2019-03-27T08:27:57.654Z,101873.16
2019-03-27T08:29:02.137Z,101874.43
2019-03-27T08:30:09.610Z,101875.30
2019-03-27T08:31:14.067Z,101874.34
2019-03-27T08:32:18.602Z,101873.80
2019-03-27T08:33:23.071Z,101882.31
2019-03-27T08:34:27.640Z,101880.38
2019-03-27T08:35:32.098Z,101880.76
2019-03-27T08:36:36.679Z,101877.04
2019-03-27T08:37:41.322Z,101887.80
2019-03-27T08:38:45.706Z,101885.41
2019-03-27T08:39:50.492Z,101883.03
2019-03-27T08:40:55.210Z,101882.95
2019-03-27T08:41:59.549Z,101883.27
2019-03-27T08:43:04.002Z,101884.92
2019-03-27T08:44:08.469Z,101883.81
2019-03-27T08:45:13.736Z,101887.30
2019-03-27T08:46:18.112Z,101885.33
2019-03-27T08:47:22.764Z,101887.84
2019-03-27T08:48:27.431Z,101895.77
2019-03-27T08:49:31.896Z,101886.10
2019-03-27T08:50:36.514Z,101895.80
2019-03-27T08:51:40.967Z,101895.14
2019-03-27T08:52:45.420Z,101891.22
2019-03-27T08:53:49.802Z,101890.55
2019-03-27T08:54:54.494Z,101893.88
2019-03-27T08:55:59.115Z,101889.98
2019-03-27T08:57:03.564Z,101887.84
2019-03-27T08:58:08.010Z,101883.03
2019-03-27T08:59:12.552Z,101884.91
2019-03-27T09:00:21.279Z,101875.01
2019-03-27T09:01:25.276Z,101875.05
2019-03-27T09:02:29.729Z,101878.23
2019-03-27T09:03:34.760Z,101879.73
2019-03-27T09:04:39.147Z,101883.02
2019-03-27T09:05:43.676Z,101873.19
2019-03-27T09:06:48.405Z,101878.00
2019-03-27T09:07:52.851Z,101871.38
2019-03-27T09:08:57.595Z,101870.17
2019-03-27T09:10:02.059Z,101871.66
2019-03-27T09:11:06.594Z,101866.75
2019-03-27T09:12:10.984Z,101869.53
2019-03-27T09:13:15.355Z,101870.63
2019-03-27T09:14:20.130Z,101868.61
2019-03-27T09:15:24.818Z,101863.07
2019-03-27T09:16:29.440Z,101863.59
2019-03-27T09:17:34.126Z,101866.83
2019-03-27T09:18:38.744Z,101867.72
2019-03-27T09:19:43.460Z,101858.61
2019-03-27T09:20:47.825Z,101852.64
2019-03-27T09:21:52.317Z,101853.53
2019-03-27T09:22:57.379Z,101848.60
2019-03-27T09:24:02.106Z,101851.75
2019-03-27T09:25:07.206Z,101850.38
2019-03-27T09:26:11.986Z,101850.28
2019-03-27T09:27:16.536Z,101849.02
2019-03-27T09:28:20.998Z,101857.77
2019-03-27T09:29:25.471Z,101852.91
2019-03-27T09:30:30.113Z,101854.55
2019-03-27T09:31:44.899Z,101852.81
2019-03-27T09:32:40.671Z,101856.52
2019-03-27T09:33:45.397Z,101850.53
2019-03-27T09:34:49.867Z,101853.53
2019-03-27T09:35:54.419Z,101851.96
2019-03-27T09:36:58.858Z,101854.82
2019-03-27T09:38:03.263Z,101857.12
2019-03-27T09:39:10.459Z,101858.48
2019-03-27T09:40:15.657Z,101857.59
2019-03-27T09:41:21.595Z,101853.93
2019-03-27T09:42:26.144Z,101857.45
2019-03-27T09:43:31.071Z,101859.58
2019-03-27T09:44:35.724Z,101855.31
2019-03-27T09:45:40.639Z,101856.13
2019-03-27T09:46:45.123Z,101857.77
2019-03-27T09:47:49.666Z,101856.23
2019-03-27T09:48:54.073Z,101855.06
2019-03-27T09:49:58.548Z,101855.64
2019-03-27T09:51:03.352Z,101854.24
2019-03-27T09:52:08.275Z,101851.42
2019-03-27T09:53:13.198Z,101855.75
2019-03-27T09:54:17.746Z,101858.61
2019-03-27T09:55:22.735Z,101853.67
2019-03-27T09:56:27.269Z,101851.41
2019-03-27T09:57:31.809Z,101859.67
2019-03-27T09:58:37.188Z,101852.45
2019-03-27T09:59:42.017Z,101848.23
2019-03-27T10:01:11.537Z,101845.76
2019-03-27T10:02:16.077Z,101845.45
2019-03-27T10:03:20.860Z,101845.98
2019-03-27T10:04:25.419Z,101855.17
2019-03-27T10:05:29.984Z,101850.28
2019-03-27T10:06:34.726Z,101848.75
2019-03-27T10:07:39.515Z,101854.59
2019-03-27T10:08:44.030Z,101853.42
2019-03-27T10:09:50.296Z,101859.83
2019-03-27T10:10:55.465Z,101858.16
2019-03-27T10:11:59.988Z,101860.26
2019-03-27T10:13:04.688Z,101850.91
2019-03-27T10:14:09.144Z,101851.13
2019-03-27T10:15:13.733Z,101854.53
2019-03-27T10:16:18.479Z,101857.94
2019-03-27T10:17:23.173Z,101855.84
2019-03-27T10:18:28.105Z,101856.79
2019-03-27T10:19:32.725Z,101852.16
2019-03-27T10:20:37.287Z,101856.87
2019-03-27T10:21:42.053Z,101855.16
2019-03-27T10:22:46.746Z,101858.30
2019-03-27T10:23:51.614Z,101863.48
2019-03-27T10:24:55.982Z,101862.59
2019-03-27T10:26:00.447Z,101860.91
2019-03-27T10:27:04.978Z,101868.03
2019-03-27T10:28:09.427Z,101864.67
2019-03-27T10:29:13.879Z,101864.50
2019-03-27T10:30:18.414Z,101867.01
2019-03-27T10:31:23.034Z,101863.11
2019-03-27T10:32:27.486Z,101860.95
2019-03-27T10:33:31.861Z,101863.34
2019-03-27T10:34:36.550Z,101856.53
2019-03-27T10:35:41.257Z,101857.70
2019-03-27T10:36:46.209Z,101851.85
2019-03-27T10:37:50.735Z,101846.47
2019-03-27T10:38:55.103Z,101849.17
2019-03-27T10:39:59.488Z,101852.75
2019-03-27T10:41:04.037Z,101848.13
2019-03-27T10:42:08.492Z,101854.33
2019-03-27T10:43:12.947Z,101843.19
2019-03-27T10:44:17.812Z,101842.95
2019-03-27T10:45:22.213Z,101843.25
2019-03-27T10:46:26.664Z,101848.20
2019-03-27T10:47:31.117Z,101840.37
2019-03-27T10:48:35.500Z,101831.83
2019-03-27T10:49:39.883Z,101835.39
2019-03-27T10:50:44.347Z,101830.46
2019-03-27T10:51:49.044Z,101838.72
2019-03-27T10:52:53.671Z,101839.89
2019-03-27T10:53:58.120Z,101847.09
2019-03-27T10:55:02.895Z,101847.07
2019-03-27T10:56:07.359Z,101852.75
2019-03-27T10:57:11.883Z,101853.76
2019-03-27T10:58:16.658Z,101848.92
2019-03-27T10:59:21.098Z,101855.39
2019-03-27T11:00:25.635Z,101855.52
2019-03-27T11:01:30.417Z,101855.12
2019-03-27T11:02:34.952Z,101857.09
2019-03-27T11:03:39.324Z,101851.74
2019-03-27T11:04:44.027Z,101854.15
2019-03-27T11:05:48.581Z,101852.48
2019-03-27T11:06:53.034Z,101847.16
2019-03-27T11:07:57.433Z,101851.64
2019-03-27T11:09:02.179Z,101847.07
2019-03-27T11:10:07.139Z,101844.44
2019-03-27T11:11:11.977Z,101850.73
2019-03-27T11:12:17.049Z,101856.08
2019-03-27T11:13:21.567Z,101855.98
2019-03-27T11:14:37.357Z,101857.79
2019-03-27T11:15:32.352Z,101858.32
2019-03-27T11:16:36.849Z,101860.16
2019-03-27T11:17:41.297Z,101852.75
2019-03-27T11:18:45.859Z,101853.43
2019-03-27T11:19:50.409Z,101856.20
2019-03-27T11:20:54.883Z,101853.55
2019-03-27T11:21:59.479Z,101857.30
2019-03-27T11:23:04.043Z,101849.16
2019-03-27T11:24:08.501Z,101851.41
2019-03-27T11:25:13.194Z,101855.92
2019-03-27T11:26:17.956Z,101847.76
2019-03-27T11:27:23.143Z,101857.59
2019-03-27T11:28:28.636Z,101858.34
2019-03-27T11:29:33.589Z,101858.45
2019-03-27T11:30:43.519Z,101852.57
2019-03-27T11:31:48.274Z,101858.51
2019-03-27T11:32:52.974Z,101852.98
2019-03-27T11:33:57.676Z,101851.56
2019-03-27T11:35:02.401Z,101848.15
2019-03-27T11:36:06.989Z,101843.87
2019-03-27T11:37:11.519Z,101845.98
2019-03-27T11:38:16.291Z,101850.79
2019-03-27T11:39:20.748Z,101846.13
2019-03-27T11:40:25.450Z,101849.15
2019-03-27T11:41:30.158Z,101849.47
2019-03-27T11:42:34.697Z,101846.50
2019-03-27T11:43:39.387Z,101847.33
2019-03-27T11:44:44.023Z,101845.36
2019-03-27T11:45:48.968Z,101844.67
2019-03-27T11:46:53.849Z,101842.64
2019-03-27T11:47:58.902Z,101847.29
2019-03-27T11:49:03.277Z,101849.20
2019-03-27T11:50:10.136Z,101843.32
2019-03-27T11:51:14.984Z,101844.27
2019-03-27T11:52:19.466Z,101845.00
2019-03-27T11:53:24.452Z,101844.39
2019-03-27T11:54:28.963Z,101836.59
2019-03-27T11:55:33.539Z,101836.19
2019-03-27T11:56:38.384Z,101836.38
2019-03-27T11:57:43.178Z,101837.97
2019-03-27T11:58:47.713Z,101834.54
2019-03-27T11:59:54.162Z,101832.86
2019-03-27T12:00:59.036Z,101835.66
2019-03-27T12:02:03.589Z,101836.06
2019-03-27T12:03:08.180Z,101838.39
2019-03-27T12:04:13.020Z,101838.10
2019-03-27T12:05:17.780Z,101828.94
2019-03-27T12:06:22.559Z,101837.78
2019-03-27T12:07:27.089Z,101831.42
2019-03-27T12:08:31.625Z,101832.73
2019-03-27T12:09:36.082Z,101829.90
2019-03-27T12:10:40.469Z,101831.68
2019-03-27T12:11:45.285Z,101831.14
2019-03-27T12:12:49.736Z,101837.37
2019-03-27T12:13:54.741Z,101831.67
2019-03-27T12:14:59.582Z,101832.09
2019-03-27T12:16:04.719Z,101832.92
2019-03-27T12:17:09.275Z,101829.93
2019-03-27T12:18:16.104Z,101825.83
2019-03-27T12:19:20.652Z,101826.84